sensor_id;sensor_type;location;lat;lon;timestamp;pressure;altitude;pressure_sealevel;temperature;humidity
71642;BME280;60657;50.122;14.468;2023-01-16T00:03:05;97282.50208845151;;;4.9431601434348025;69.29945830472266
71642;BME280;60657;50.122;14.468;2023-01-16T00:06:21;97275.952238411;;;5.039291981383997;69.1163500419623
71642;BME280;60657;50.122;14.468;2023-01-16T00:09:37;97278.41243595319;;;5.015259021896696;68.97329671168077
71642;BME280;60657;50.122;14.468;2023-01-16T00:12:52;97285.00213244803;;;5.039291981383997;68.89700160219729
71642;BME280;60657;50.122;14.468;2023-01-16T00:16:08;97275.93105690011;;;4.969863431754021;68.91226062409399
71642;BME280;60657;50.122;14.468;2023-01-16T00:19:24;97269.35886063548;;;4.91111619745174;69.05722133211262
71642;BME280;60657;50.122;14.468;2023-01-16T00:22:40;97261.12965193437;;;4.983215075913634;68.92751964599069
71642;BME280;60657;50.122;14.468;2023-01-16T00:25:55;97267.68438987953;;;4.889753566796365;69.30136568245976
71642;BME280;60657;50.122;14.468;2023-01-16T00:29:13;97261.1174938944;;;4.961852445258259;69.19455252918289
71642;BME280;60657;50.122;14.468;2023-01-16T00:32:29;97260.30945632781;;;4.985885404745552;69.20790417334248
71642;BME280;60657;50.122;14.468;2023-01-16T00:35:45;97247.14710086473;;;4.929808499275197;69.34714274814985
71642;BME280;60657;50.122;14.468;2023-01-16T00:39:01;97246.31960018464;;;5.015259021896696;69.25749599450675
71642;BME280;60657;50.122;14.468;2023-01-16T00:42:17;97260.28915143023;;;4.908445868619822;69.58747234302281
71642;BME280;60657;50.122;14.468;2023-01-16T00:45:33;97250.45614379495;;;5.0526436255436025;69.16021972991531
71642;BME280;60657;50.122;14.468;2023-01-16T00:48:49;97238.08008689246;;;4.959182116426334;69.25749599450675
71642;BME280;60657;50.122;14.468;2023-01-16T00:52:05;97240.54822204798;;;4.887083237964447;69.48828870069428
71642;BME280;60657;50.122;14.468;2023-01-16T00:55:20;97240.54822204798;;;4.871061264972916;69.28992141603723
71642;BME280;60657;50.122;14.468;2023-01-16T00:58:36;97245.5093082943;;;5.009918364232853;68.89318684672313
71642;BME280;60657;50.122;14.468;2023-01-16T01:01:52;97251.2800950144;;;5.06332494087129;68.80735484855421
71642;BME280;60657;50.122;14.468;2023-01-16T01:05:08;97255.38696543839;;;5.036621652552071;68.7501335164416
71642;BME280;60657;50.122;14.468;2023-01-16T01:08:24;97254.57897555534;;;5.124742504005496;68.51743343251698
71642;BME280;60657;50.122;14.468;2023-01-16T01:11:40;97257.06468113222;;;5.188830395971621;68.22369726100557
71642;BME280;60657;50.122;14.468;2023-01-16T01:14:55;97259.53649135328;;;5.191500724803539;68.15121690699627
71642;BME280;60657;50.122;14.468;2023-01-16T01:18:11;97263.65111496382;;;5.183489738307777;68.25803006027314
71642;BME280;60657;50.122;14.468;2023-01-16T01:21:27;97261.1791956166;;;5.1621271076524025;68.09399557488365
71642;BME280;60657;50.122;14.468;2023-01-16T01:24:43;97250.45614379495;;;4.969863431754021;68.65094987411307
71642;BME280;60657;50.122;14.468;2023-01-16T01:28:03;97235.6320683991;;;4.956511787594415;68.75776302738994
71642;BME280;60657;50.122;14.468;2023-01-16T01:31:19;97229.85527710828;;;4.927138170443271;68.9408712901503
71642;BME280;60657;50.122;14.468;2023-01-16T01:34:35;97227.36931027786;;;4.860379949645228;69.07629510948348
71642;BME280;60657;50.122;14.468;2023-01-16T01:37:51;97229.01328505037;;;4.841687647821772;69.26321812771802
71642;BME280;60657;50.122;14.468;2023-01-16T01:41:07;97233.94500385283;;;4.812314030670635;69.3376058594644
71642;BME280;60657;50.122;14.468;2023-01-16T01:45:01;97233.96047839047;;;4.887083237964447;69.25368123903257
71642;BME280;60657;50.122;14.468;2023-01-16T01:48:26;97229.82121007021;;;4.817654688334478;69.43106736858168
71642;BME280;60657;50.122;14.468;2023-01-16T01:51:46;97230.63231657514;;;4.764248111696041;69.50926985580224
71642;BME280;60657;50.122;14.468;2023-01-16T01:55:05;97224.05794851569;;;4.729533836881053;69.61608300907912
71642;BME280;60657;50.122;14.468;2023-01-16T01:58:28;97217.44942581397;;;4.630731670099948;70.01853971160449
71642;BME280;60657;50.122;14.468;2023-01-16T02:01:44;97223.19824775092;;;4.593347066453042;70.13298237582971
71642;BME280;60657;50.122;14.468;2023-01-16T02:05:01;97220.72638613908;;;4.668116273746854;69.77630273899443
71642;BME280;60657;50.122;14.468;2023-01-16T02:08:22;97220.69051689608;;;4.4811932555123235;70.38666361486229
71642;BME280;60657;50.122;14.468;2023-01-16T02:11:46;97215.76257365197;;;4.529259174486917;70.21690699626154
71642;BME280;60657;50.122;14.468;2023-01-16T02:15:08;97210.01539779738;;;4.547951476310367;70.3408865491722
71642;BME280;60657;50.122;14.468;2023-01-16T02:18:24;97201.79132726441;;;4.531929503318835;70.33707179369803
71642;BME280;60657;50.122;14.468;2023-01-16T02:21:48;97182.88972078402;;;4.51857785915923;70.31990539406424
71642;BME280;60657;50.122;14.468;2023-01-16T02:26:42;97168.90842860426;;;4.483863584344242;70.78149080643931
71642;BME280;60657;50.122;14.468;2023-01-16T02:30:14;97172.16487372546;;;4.446478980697336;70.76432440680553
71642;BME280;60657;50.122;14.468;2023-01-16T02:33:48;97168.07698365068;;;4.526588845654992;70.47821774624246
71642;BME280;60657;50.122;14.468;2023-01-16T02:37:21;97173.8211066877;;;4.502555886167698;70.42099641412986
71642;BME280;60657;50.122;14.468;2023-01-16T02:40:53;97167.23218404275;;;4.296940566109711;70.98176546883344
71642;BME280;60657;50.122;14.468;2023-01-16T02:44:20;97159.84962289907;;;4.491874570840011;70.42290379186694
71642;BME280;60657;50.122;14.468;2023-01-16T02:47:50;97157.36682986116;;;4.446478980697336;70.5163653009842
71642;BME280;60657;50.122;14.468;2023-01-16T02:51:22;97150.81753318287;;;4.47585259784848;70.13107499809263
71642;BME280;60657;50.122;14.468;2023-01-16T02:54:47;97128.60763850731;;;4.47585259784848;69.9727626459144
71642;BME280;60657;50.122;14.468;2023-01-16T02:58:12;97126.10960304204;;;4.374380102235449;70.04142824444953
71642;BME280;60657;50.122;14.468;2023-01-16T03:01:32;97127.77784686784;;;4.470511940184636;70.15396353093767
71642;BME280;60657;50.122;14.468;2023-01-16T03:04:50;97117.07228930159;;;4.403753719386586;70.00900282291906
71642;BME280;60657;50.122;14.468;2023-01-16T03:08:13;97109.6982929646;;;4.454489967193105;69.81826504921034
71642;BME280;60657;50.122;14.468;2023-01-16T03:11:53;97109.6927139477;;;4.47585259784848;69.71335927367056
71642;BME280;60657;50.122;14.468;2023-01-16T03:15:26;97108.06234570467;;;4.550621805142292;69.32234683756771
71642;BME280;60657;50.122;14.468;2023-01-16T03:18:53;97111.3444824982;;;4.5399404898146045;69.43678950179293
71642;BME280;60657;50.122;14.468;2023-01-16T03:22:24;97103.1190719692;;;4.5399404898146045;69.30899519340811
71642;BME280;60657;50.122;14.468;2023-01-16T03:25:51;97099.82693330717;;;4.5105668726634605;69.12016479743649
71642;BME280;60657;50.122;14.468;2023-01-16T03:29:14;97099.83682524935;;;4.5105668726634605;69.13733119707027
71642;BME280;60657;50.122;14.468;2023-01-16T03:32:45;97087.48989337914;;;4.486533913176167;69.41390096894789
71642;BME280;60657;50.122;14.468;2023-01-16T03:36:10;97083.36719100435;;;4.403753719386586;69.43488212405585
71642;BME280;60657;50.122;14.468;2023-01-16T03:39:33;97083.38478568464;;;4.467841611352711;69.24032959487297
71642;BME280;60657;50.122;14.468;2023-01-16T03:42:56;97085.83605127671;;;4.3717097734035235;69.1487754634928
71642;BME280;60657;50.122;14.468;2023-01-16T03:46:18;97068.57100063366;;;4.39040207522698;69.22888532845045
71642;BME280;60657;50.122;14.468;2023-01-16T03:49:42;97066.92024743905;;;4.361028458075836;69.3967345693141
71642;BME280;60657;50.122;14.468;2023-01-16T03:53:04;97065.27719703232;;;4.3049515526054805;69.043869687953
71642;BME280;60657;50.122;14.468;2023-01-16T03:56:26;97057.06971680465;;;4.451819638361179;68.87602044708935
71642;BME280;60657;50.122;14.468;2023-01-16T03:59:48;97057.88846396976;;;4.454489967193105;68.4239719233997
71642;BME280;60657;50.122;14.468;2023-01-16T04:03:08;97053.77694857826;;;4.443808651865417;68.15503166247044
71642;BME280;60657;50.122;14.468;2023-01-16T04:06:32;97038.16117730257;;;4.331654840924699;68.14930952925917
71642;BME280;60657;50.122;14.468;2023-01-16T04:10:02;97043.90270256;;;4.369039444571605;68.52315556572823
71642;BME280;60657;50.122;14.468;2023-01-16T04:13:25;97025.82160280012;;;4.441138323033492;68.18554970626383
71642;BME280;60657;50.122;14.468;2023-01-16T04:16:49;97030.73584345722;;;4.294270237277793;68.58991378652628
71642;BME280;60657;50.122;14.468;2023-01-16T04:20:06;97029.91068324086;;;4.182116426337075;68.52506294346533
71642;BME280;60657;50.122;14.468;2023-01-16T04:23:24;97022.51960082566;;;4.288929579613949;68.27901121538109
71642;BME280;60657;50.122;14.468;2023-01-16T04:26:42;97012.6601381719;;;4.219501029983981;68.3228809033341
71642;BME280;60657;50.122;14.468;2023-01-16T04:29:58;97006.06462643004;;;4.053940642404825;68.68719005111772
71642;BME280;60657;50.122;14.468;2023-01-16T04:33:14;97010.17955331627;;;4.099336232547493;68.6452277409018
71642;BME280;60657;50.122;14.468;2023-01-16T04:36:29;97001.12984469245;;;4.09399557488365;68.74441138323033
71642;BME280;60657;50.122;14.468;2023-01-16T04:39:45;96990.45755917464;;;4.059281300068669;68.9103532463569
71642;BME280;60657;50.122;14.468;2023-01-16T04:43:01;96999.49251945008;;;4.072632944228275;68.45067521171893
71642;BME280;60657;50.122;14.468;2023-01-16T04:46:16;96976.49024165898;;;4.131380178530556;68.32860303654536
71642;BME280;60657;50.122;14.468;2023-01-16T04:49:32;96974.85471623934;;;4.216830701152055;68.277103837644
71642;BME280;60657;50.122;14.468;2023-01-16T04:52:48;96981.43613337555;;;4.288929579613949;68.07873655298695
71642;BME280;60657;50.122;14.468;2023-01-16T04:56:04;96976.50485722187;;;4.318303196765086;67.78500038147554
71642;BME280;60657;50.122;14.468;2023-01-16T04:59:20;96973.21829876589;;;4.385061417563136;67.65529869535362
71642;BME280;60657;50.122;14.468;2023-01-16T05:02:36;96968.28718728297;;;4.446478980697336;67.31769283588922
71642;BME280;60657;50.122;14.468;2023-01-16T05:05:53;96962.53267585587;;;4.379720759899293;67.5122453650721
71642;BME280;60657;50.122;14.468;2023-01-16T05:09:08;96951.84870868493;;;4.43312733653773;67.24330510414282
71642;BME280;60657;50.122;14.468;2023-01-16T05:12:24;96963.35562239065;;;4.39040207522698;67.06210421911956
71642;BME280;60657;50.122;14.468;2023-01-16T05:15:42;96951.84848265567;;;4.4224460212100425;67.1288624399176
71642;BME280;60657;50.122;14.468;2023-01-16T05:18:58;96938.69827868165;;;4.414435034714273;66.94384679942016
71642;BME280;60657;50.122;14.468;2023-01-16T05:22:14;96928.83675735552;;;4.353017471580074;67.01632715342947
71642;BME280;60657;50.122;14.468;2023-01-16T05:25:29;96924.72696420808;;;4.34767681391623;67.14221408407721
71642;BME280;60657;50.122;14.468;2023-01-16T05:28:45;96916.51123418864;;;4.256885633630887;67.55992980849928
71642;BME280;60657;50.122;14.468;2023-01-16T05:32:01;96910.7590368662;;;4.256885633630887;67.51987487602045
71642;BME280;60657;50.122;14.468;2023-01-16T05:35:17;96906.64631958018;;;4.278248264286262;67.203250171664
71642;BME280;60657;50.122;14.468;2023-01-16T05:38:33;96908.28846510653;;;4.302281223773555;67.07736324101626
71642;BME280;60657;50.122;14.468;2023-01-16T05:41:49;96895.13452586648;;;4.334325169756617;66.94384679942016
71642;BME280;60657;50.122;14.468;2023-01-16T05:45:05;96891.84031173168;;;4.4224460212100425;67.01823453116656
71642;BME280;60657;50.122;14.468;2023-01-16T05:48:21;96895.94091972244;;;4.5105668726634605;66.98962386511025
71642;BME280;60657;50.122;14.468;2023-01-16T05:51:37;96889.37809277386;;;4.387731746395055;66.36209658960861
71642;BME280;60657;50.122;14.468;2023-01-16T05:54:53;96884.44434148243;;;4.355687800411992;66.55855649652857
71642;BME280;60657;50.122;14.468;2023-01-16T05:58:09;96883.6286698731;;;4.3049515526054805;66.99343862058441
71642;BME280;60657;50.122;14.468;2023-01-16T06:01:27;96879.51453994033;;;4.387731746395055;66.65392538338293
71642;BME280;60657;50.122;14.468;2023-01-16T06:04:44;96881.15054560128;;;4.486533913176167;66.47272449835965
71642;BME280;60657;50.122;14.468;2023-01-16T06:08:00;96877.85574730106;;;4.4892042420080855;66.35065232318608
71642;BME280;60657;50.122;14.468;2023-01-16T06:11:15;96860.60344754651;;;4.47585259784848;66.37735561150531
71642;BME280;60657;50.122;14.468;2023-01-16T06:14:31;96849.10304716237;;;4.454489967193105;66.13702601663233
71642;BME280;60657;50.122;14.468;2023-01-16T06:17:47;96844.99519025705;;;4.427786678873886;66.50896467536431
71642;BME280;60657;50.122;14.468;2023-01-16T06:21:03;96832.66926432523;;;4.395742732890824;66.33730067902647
71642;BME280;60657;50.122;14.468;2023-01-16T06:24:19;96827.7378135529;;;4.435797665369648;66.44983596551461
71642;BME280;60657;50.122;14.468;2023-01-16T06:27:34;96816.20010171045;;;4.47585259784848;66.0092317082475
71642;BME280;60657;50.122;14.468;2023-01-16T06:30:50;96803.9154781036;;;4.288929579613949;66.4650949874113
71642;BME280;60657;50.122;14.468;2023-01-16T06:34:06;96793.24660170861;;;4.192797741664762;66.74738689250019
71642;BME280;60657;50.122;14.468;2023-01-16T06:37:22;96784.20974389261;;;4.182116426337075;66.88662546730754
71642;BME280;60657;50.122;14.468;2023-01-16T06:40:38;96787.50209941075;;;4.112687876707106;66.97627222095063
71642;BME280;60657;50.122;14.468;2023-01-16T06:43:54;96794.09575113359;;;4.147402151522087;67.03158617532617
71642;BME280;60657;50.122;14.468;2023-01-16T06:47:10;96785.06296044987;;;4.104676890211337;67.27191577019913
71642;BME280;60657;50.122;14.468;2023-01-16T06:50:25;96785.06542817038;;;4.112687876707106;67.18608377203022
71642;BME280;60657;50.122;14.468;2023-01-16T06:53:41;96783.42642114006;;;4.040588998245212;67.60189211871518
71642;BME280;60657;50.122;14.468;2023-01-16T06:56:57;96775.1990887995;;;4.142061493858243;67.30815594720379
71642;BME280;60657;50.122;14.468;2023-01-16T07:00:13;96770.27564216487;;;4.104676890211337;67.31769283588922
71642;BME280;60657;50.122;14.468;2023-01-16T07:03:30;96765.3818521943;;;3.7922484168764754;68.4258793011368
71642;BME280;60657;50.122;14.468;2023-01-16T07:06:46;96757.14438054097;;;4.003204394598306;67.84222171358816
71642;BME280;60657;50.122;14.468;2023-01-16T07:10:02;96751.40892719678;;;3.9044022278171937;68.11497672999161
71642;BME280;60657;50.122;14.468;2023-01-16T07:13:18;96743.19389831078;;;3.9658197909514;68.12451361867704
71642;BME280;60657;50.122;14.468;2023-01-16T07:16:34;96741.550297436;;;3.9524681467917873;68.20271610589761
71642;BME280;60657;50.122;14.468;2023-01-16T07:19:50;96739.92248883078;;;3.8723582818341313;68.09590295262073
71642;BME280;60657;50.122;14.468;2023-01-16T07:23:11;96739.1166914823;;;3.840314335851069;68.26947432669566
71642;BME280;60657;50.122;14.468;2023-01-16T07:26:33;96735.84389353651;;;3.701457236591132;68.83978027008469
71642;BME280;60657;50.122;14.468;2023-01-16T07:29:53;96744.8735484739;;;3.6881055924315262;68.73868925001908
71642;BME280;60657;50.122;14.468;2023-01-16T07:33:09;96747.33154645974;;;3.5786221103227263;68.94277866788738
71642;BME280;60657;50.122;14.468;2023-01-16T07:36:25;96755.54269417301;;;3.722819867246507;68.75967040512703
71642;BME280;60657;50.122;14.468;2023-01-16T07:39:41;96739.11091785808;;;3.840314335851069;68.43541618982223
71642;BME280;60657;50.122;14.468;2023-01-16T07:42:57;96739.91226971848;;;3.9898527504386934;67.99481193255512
71642;BME280;60657;50.122;14.468;2023-01-16T07:46:12;96720.16090964882;;;4.150072480354012;67.44357976653697
71642;BME280;60657;50.122;14.468;2023-01-16T07:49:28;96723.35926095658;;;4.446478980697336;66.36018921187151
71642;BME280;60657;50.122;14.468;2023-01-16T07:52:44;96709.25831780817;;;4.670786602578772;65.71168078126192
71642;BME280;60657;50.122;14.468;2023-01-16T07:56:00;96698.35295528402;;;5.143434805828946;64.3879606317235
71642;BME280;60657;50.122;14.468;2023-01-16T07:59:17;96694.64400099614;;;5.71755550469215;62.90974288548104
71642;BME280;60657;50.122;14.468;2023-01-16T08:02:33;96695.9770824454;;;5.904478522926681;61.55931944762341
71642;BME280;60657;50.122;14.468;2023-01-16T08:05:49;96684.48274479259;;;5.952544441901274;61.557412069886325
71642;BME280;60657;50.122;14.468;2023-01-16T08:09:09;96677.91708062684;;;5.891126878767068;61.43343251697566
71642;BME280;60657;50.122;14.468;2023-01-16T08:12:26;96661.1812370974;;;6.11810482948043;61.06530861371786
71642;BME280;60657;50.122;14.468;2023-01-16T08:15:41;96665.12076677622;;;6.280994888227667;60.37483787289234
71642;BME280;60657;50.122;14.468;2023-01-16T08:18:58;96652.72062182035;;;6.337071793698023;60.04486152437629
71642;BME280;60657;50.122;14.468;2023-01-16T08:22:14;96636.80102490359;;;6.558709086747541;59.52224002441443
71642;BME280;60657;50.122;14.468;2023-01-16T08:25:30;96637.67698288689;;;6.238269626916917;59.73014419775693
71642;BME280;60657;50.122;14.468;2023-01-16T08:28:46;96623.49441646892;;;6.5106431677729475;59.163653009842065
71642;BME280;60657;50.122;14.468;2023-01-16T08:32:14;96611.10328580889;;;6.6281376363775095;59.150301365682466
71642;BME280;60657;50.122;14.468;2023-01-16T08:35:30;96593.18747785338;;;7.1114671549553705;57.605325398641945
71642;BME280;60657;50.122;14.468;2023-01-16T08:38:46;96598.04582036132;;;7.103456168459601;57.399328603036544
71642;BME280;60657;50.122;14.468;2023-01-16T08:42:03;96577.79385424746;;;7.338445105668725;57.32112611581598
71642;BME280;60657;50.122;14.468;2023-01-16T08:45:19;96567.59833849555;;;7.285038529030288;56.57534142061494
71642;BME280;60657;50.122;14.468;2023-01-16T08:48:39;96559.13163032252;;;7.722972457465474;55.663614862287325
71642;BME280;60657;50.122;14.468;2023-01-16T08:51:54;96554.60559043814;;;7.17288471808957;56.65163653009842
71642;BME280;60657;50.122;14.468;2023-01-16T08:55:11;96542.00518373838;;;7.576104371709775;56.682154573891815
71642;BME280;60657;50.122;14.468;2023-01-16T08:58:27;96530.21139600941;;;7.4692912184329;56.43610284580758
71642;BME280;60657;50.122;14.468;2023-01-16T09:01:43;96522.60568523109;;;7.520027466239412;56.01266498817426
71642;BME280;60657;50.122;14.468;2023-01-16T09:04:59;96518.40724567487;;;7.677576867322806;56.06416418707561
71642;BME280;60657;50.122;14.468;2023-01-16T09:08:15;96519.28182816421;;;7.5654230563820875;55.98786907759212
71642;BME280;60657;50.122;14.468;2023-01-16T09:11:30;96513.4459046833;;;8.243686579690241;54.786221103227284
71642;BME280;60657;50.122;14.468;2023-01-16T09:14:47;96499.67587915962;;;8.224994277866791;53.69520103761349
71642;BME280;60657;50.122;14.468;2023-01-16T09:18:03;96501.24106032548;;;8.54276340886549;53.8401617456321
71642;BME280;60657;50.122;14.468;2023-01-16T09:21:19;96497.50122861283;;;8.716334782940415;53.369039444571605
71642;BME280;60657;50.122;14.468;2023-01-16T09:24:35;96486.22555428804;;;8.537422751201646;52.836881055924316
71642;BME280;60657;50.122;14.468;2023-01-16T09:27:55;96480.51655018624;;;8.769741359578852;53.19546807049668
71642;BME280;60657;50.122;14.468;2023-01-16T09:31:10;96459.7157061571;;;9.266422522316319;52.041504539559014
71642;BME280;60657;50.122;14.468;2023-01-16T09:34:26;96451.75107728378;;;9.848554207675285;50.15510795757992
71642;BME280;60657;50.122;14.468;2023-01-16T09:37:42;96454.27628883875;;;9.309147783627068;51.42923628595407
71642;BME280;60657;50.122;14.468;2023-01-16T09:40:58;96454.70860321731;;;8.868543526359957;51.892729076066225
71642;BME280;60657;50.122;14.468;2023-01-16T09:44:15;96452.37927714224;;;9.015411612115663;51.72869459067674
71642;BME280;60657;50.122;14.468;2023-01-16T09:47:32;96446.90145156822;;;9.538796063172349;51.1011673151751
71642;BME280;60657;50.122;14.468;2023-01-16T09:50:52;96435.68920506489;;;9.207675288014038;51.3510337987335
71642;BME280;60657;50.122;14.468;2023-01-16T09:54:19;96432.15291701963;;;9.234378576333256;51.40062561989777
71642;BME280;60657;50.122;14.468;2023-01-16T09:57:48;96423.1931531111;;;9.560158693827724;50.548027771419854
71642;BME280;60657;50.122;14.468;2023-01-16T10:01:09;96414.03049283265;;;9.888609140154117;49.91859311818112
71642;BME280;60657;50.122;14.468;2023-01-16T10:04:29;96405.17997822682;;;10.385290302891583;47.85671778439002
71642;BME280;60657;50.122;14.468;2023-01-16T10:07:47;96391.34094052164;;;10.371938658731978;48.16762035553521
71642;BME280;60657;50.122;14.468;2023-01-16T10:11:16;96387.71417554282;;;10.385290302891583;48.30495155260548
71642;BME280;60657;50.122;14.468;2023-01-16T10:14:42;96363.49401836473;;;10.679026474402988;47.730830853742276
71642;BME280;60657;50.122;14.468;2023-01-16T10:18:21;96356.69054302612;;;10.417334248874646;47.738460364690624
71642;BME280;60657;50.122;14.468;2023-01-16T10:21:53;96343.89097765369;;;10.772487983520257;47.625925078202485
71642;BME280;60657;50.122;14.468;2023-01-16T10:25:24;96334.91950916183;;;11.41603723201343;45.99511711299306
71642;BME280;60657;50.122;14.468;2023-01-16T10:28:49;96335.23590986292;;;11.050202182040131;46.552071412222475
71642;BME280;60657;50.122;14.468;2023-01-16T10:32:18;96326.47081839306;;;11.207751583123525;45.76050965133135
71642;BME280;60657;50.122;14.468;2023-01-16T10:35:43;96322.78946247068;;;11.242465857938505;45.55260547798886
71642;BME280;60657;50.122;14.468;2023-01-16T10:39:04;96312.02102957957;;;11.926070038910503;44.79346913862821
71642;BME280;60657;50.122;14.468;2023-01-16T10:42:22;96301.79779986122;;;11.632333867399097;44.89646753643091
71642;BME280;60657;50.122;14.468;2023-01-16T10:45:43;96300.0757394425;;;11.93675135423819;43.94468604562447
71642;BME280;60657;50.122;14.468;2023-01-16T10:49:00;96289.91562850421;;;11.752498664835585;44.406271457999544
71642;BME280;60657;50.122;14.468;2023-01-16T10:52:17;96279.18500599032;;;11.797894254978253;43.7196154726482
71642;BME280;60657;50.122;14.468;2023-01-16T10:55:33;96264.96019607416;;;11.659037155718316;43.641412985427635
71642;BME280;60657;50.122;14.468;2023-01-16T10:58:51;96268.04023270542;;;11.584267948424504;43.11497672999161
71642;BME280;60657;50.122;14.468;2023-01-16T11:02:12;96264.92597996855;;;11.568245975432973;43.8226138704509
71642;BME280;60657;50.122;14.468;2023-01-16T11:05:33;96259.29420334534;;;11.413366903181505;43.92370489051652
71642;BME280;60657;50.122;14.468;2023-01-16T11:08:52;96249.52781093786;;;11.506828412298773;44.31853208209354
71642;BME280;60657;50.122;14.468;2023-01-16T11:12:11;96243.8056721155;;;11.725795376516366;43.771114671549554
71642;BME280;60657;50.122;14.468;2023-01-16T11:15:39;96219.48991274275;;;12.337300679026477;42.53131914244297
71642;BME280;60657;50.122;14.468;2023-01-16T11:18:55;96215.12358363351;;;12.297245746547645;41.81795986877241
71642;BME280;60657;50.122;14.468;2023-01-16T11:22:21;96206.30666662549;;;12.08896009765774;41.53566796368353
71642;BME280;60657;50.122;14.468;2023-01-16T11:25:39;96191.07036018839;;;11.94476234073396;41.846570534828714
71642;BME280;60657;50.122;14.468;2023-01-16T11:28:56;96182.47254785364;;;12.19844357976654;40.269169146257724
71642;BME280;60657;50.122;14.468;2023-01-16T11:32:13;96167.55968502657;;;11.448081177996492;41.344930189974825
71642;BME280;60657;50.122;14.468;2023-01-16T11:35:31;96167.79390012368;;;11.17837796597238;42.03921568627451
71642;BME280;60657;50.122;14.468;2023-01-16T11:38:49;96158.73556491132;;;11.725795376516366;41.5547417410544
71642;BME280;60657;50.122;14.468;2023-01-16T11:42:09;96151.52393716548;;;11.600289921416035;41.68253604943923
71642;BME280;60657;50.122;14.468;2023-01-16T11:45:27;96140.31302036814;;;12.25719081406882;41.35065232318608
71642;BME280;60657;50.122;14.468;2023-01-16T11:48:45;96114.36813831856;;;12.534905012588695;40.261539635309376
71642;BME280;60657;50.122;14.468;2023-01-16T11:52:00;96109.50557471704;;;12.780575265125506;39.840009155413135
71642;BME280;60657;50.122;14.468;2023-01-16T11:55:20;96094.33685630554;;;12.980849927519643;39.52719920653086
71642;BME280;60657;50.122;14.468;2023-01-16T11:58:50;96071.2447743055;;;12.988860914015412;39.8304722667277
71642;BME280;60657;50.122;14.468;2023-01-16T12:02:20;96064.76575055931;;;12.967498283360037;38.077592126344705
71642;BME280;60657;50.122;14.468;2023-01-16T12:06:01;96042.67793239212;;;12.988860914015412;38.94544899671931
71642;BME280;60657;50.122;14.468;2023-01-16T12:09:32;96032.25366782809;;;13.469520103761347;38.16723887998779